Time;durP1;ratioP1;P1;durP2;ratioP2;P2;SDS_P1;SDS_P2;PMS_P1;PMS_P2;Temp;Humidity;BMP_temperature;BMP_pressure;BME280_temperature;BME280_humidity;BME280_pressure;Samples;Min_cycle;Max_cycle;Signal;HPM_P1;HPM_P2
2022/04/08 14:21:58;;;;;;;9.65;2.33;;;;;;;;;;5078486;27;20660;-59
2022/04/08 14:24:26;;;;;;;9.85;2.22;;;;;;;;;;5070638;28;20049;-59
2022/04/08 14:26:54;;;;;;;6.40;2.13;;;;;;;;;;5068781;28;20115;-59
2022/04/08 14:29:20;;;;;;;4.82;1.80;;;;;;;;;;5069496;28;20052;-59
2022/04/08 14:31:46;;;;;;;5.65;1.90;;;;;;;;;;5069883;28;20143;-59
2022/04/08 14:38:17;;;;;;;4.78;1.77;;;;;;;;;;5088887;27;20642;-69
2022/04/08 14:40:43;;;;;;;4.47;1.92;;;;;;;;;;5075048;28;20041;-66
2022/04/08 14:43:09;;;;;;;5.57;1.92;;;;;;;;;;5081443;28;20060;-67
2022/04/08 14:45:35;;;;;;;6.10;2.00;;;;;;;;;;5055108;28;20075;-67
2022/04/08 14:48:01;;;;;;;5.75;1.73;;;;;;;;;;5069768;28;20072;-67
2022/04/08 14:50:27;;;;;;;5.80;2.00;;;;;;;;;;5067118;28;20522;-67
2022/04/08 14:52:53;;;;;;;4.32;1.90;;;;;;;;;;5069962;28;20056;-67
2022/04/08 14:55:19;;;;;;;4.40;1.88;;;;;;;;;;5070219;28;20060;-68
2022/04/08 14:57:45;;;;;;;5.57;1.92;;;;;;;;;;5069882;28;20037;-70
2022/04/08 15:00:11;;;;;;;5.28;1.90;;;;;;;;;;5053594;28;20042;-67
2022/04/08 15:02:37;;;;;;;4.28;1.98;;;;;;;;;;5050023;28;20094;-68
2022/04/08 15:05:04;;;;;;;4.68;1.88;;;;;;;;;;5062401;28;20044;-68
2022/04/08 15:07:30;;;;;;;6.28;1.90;;;;;;;;;;5055350;28;20102;-68
2022/04/08 15:09:56;;;;;;;4.97;1.98;;;;;;;;;;5069899;28;20090;-68
2022/04/08 15:12:22;;;;;;;4.53;1.73;;;;;;;;;;5055735;28;20037;-67
2022/04/08 15:14:48;;;;;;;5.18;2.00;;;;;;;;;;5052252;28;20051;-67
2022/04/08 15:17:15;;;;;;;3.60;1.90;;;;;;;;;;5059876;28;20041;-67
2022/04/08 15:19:41;;;;;;;6.82;2.60;;;;;;;;;;5053452;28;20120;-67
2022/04/08 15:22:07;;;;;;;8.95;2.22;;;;;;;;;;5060578;28;20049;-66
2022/04/08 15:24:33;;;;;;;4.50;1.90;;;;;;;;;;5066108;28;20502;-67
2022/04/08 15:27:03;;;;;;;6.93;2.28;;;;;;;;;;5068869;28;20045;-67
2022/04/08 15:29:29;;;;;;;9.20;2.70;;;;;;;;;;5067440;28;20056;-67
2022/04/08 15:31:55;;;;;;;6.80;2.20;;;;;;;;;;5076359;28;20040;-66
2022/04/08 15:34:21;;;;;;;5.82;2.00;;;;;;;;;;5073384;28;20083;-67
2022/04/08 15:36:47;;;;;;;9.73;2.58;;;;;;;;;;5066023;28;20062;-67
2022/04/08 15:39:13;;;;;;;10.18;2.30;;;;;;;;;;5071080;28;20436;-67
2022/04/08 15:41:41;;;;;;;8.15;2.33;;;;;;;;;;5068199;28;20060;-67
2022/04/08 15:44:07;;;;;;;11.32;2.58;;;;;;;;;;5055006;28;20041;-68
2022/04/08 15:46:34;;;;;;;5.38;1.80;;;;;;;;;;5070846;28;20079;-67
2022/04/08 15:49:00;;;;;;;6.07;2.47;;;;;;;;;;5057166;28;20124;-67
2022/04/08 15:51:26;;;;;;;5.90;2.10;;;;;;;;;;5044749;28;20121;-67
2022/04/08 15:53:52;;;;;;;13.90;2.38;;;;;;;;;;5049356;28;20053;-67
2022/04/08 15:56:18;;;;;;;11.02;2.22;;;;;;;;;;5055462;28;20345;-67
2022/04/08 15:58:44;;;;;;;6.07;2.03;;;;;;;;;;5059166;28;20045;-67
2022/04/08 16:01:11;;;;;;;6.10;2.05;;;;;;;;;;5064293;28;20049;-67
2022/04/08 16:03:37;;;;;;;4.07;2.00;;;;;;;;;;5054994;28;20056;-67
2022/04/08 16:06:03;;;;;;;5.78;1.98;;;;;;;;;;5050793;28;20046;-67
2022/04/08 16:08:29;;;;;;;5.00;2.00;;;;;;;;;;5052379;28;20051;-67
2022/04/08 16:10:55;;;;;;;4.10;2.22;;;;;;;;;;5054718;28;20529;-67
2022/04/08 16:13:22;;;;;;;7.22;2.60;;;;;;;;;;5060840;28;20045;-67
2022/04/08 16:15:48;;;;;;;6.22;2.28;;;;;;;;;;5047331;28;20396;-67
2022/04/08 16:18:14;;;;;;;4.55;2.17;;;;;;;;;;5036154;28;20080;-66
2022/04/08 16:20:40;;;;;;;6.32;2.83;;;;;;;;;;5052546;28;20045;-66
2022/04/08 16:23:06;;;;;;;5.78;2.20;;;;;;;;;;5058196;28;20043;-66
2022/04/08 16:25:32;;;;;;;5.63;2.03;;;;;;;;;;5036092;28;20041;-68
2022/04/08 16:27:58;;;;;;;6.78;2.10;;;;;;;;;;5050201;28;20452;-66
2022/04/08 16:30:24;;;;;;;4.40;1.85;;;;;;;;;;5041975;28;20047;-66
2022/04/08 16:32:52;;;;;;;4.45;1.92;;;;;;;;;;5054578;28;20049;-66
2022/04/08 16:35:18;;;;;;;4.72;1.70;;;;;;;;;;5050728;28;20111;-67
2022/04/08 16:37:44;;;;;;;5.97;1.90;;;;;;;;;;5051283;28;20053;-67
2022/04/08 16:40:11;;;;;;;5.38;1.90;;;;;;;;;;5055714;28;20048;-66
2022/04/08 16:42:42;;;;;;;4.60;2.10;;;;;;;;;;5060664;28;20119;-67
2022/04/08 16:45:09;;;;;;;3.92;2.00;;;;;;;;;;5074859;28;20056;-67
2022/04/08 16:47:34;;;;;;;4.93;2.20;;;;;;;;;;5052507;28;20045;-67
2022/04/08 16:50:00;;;;;;;5.68;2.00;;;;;;;;;;5047090;28;20052;-67
2022/04/08 16:52:26;;;;;;;5.15;1.88;;;;;;;;;;5051769;28;20090;-65
2022/04/08 16:54:52;;;;;;;7.28;2.47;;;;;;;;;;5038328;28;20041;-65
2022/04/08 16:57:18;;;;;;;7.53;2.20;;;;;;;;;;5053893;28;20400;-66
2022/04/08 16:59:44;;;;;;;6.13;2.25;;;;;;;;;;5052800;28;20041;-65
2022/04/08 17:02:11;;;;;;;6.60;2.10;;;;;;;;;;5048298;28;20068;-66
2022/04/08 17:04:37;;;;;;;8.95;2.90;;;;;;;;;;5047617;28;20099;-66
2022/04/08 17:07:03;;;;;;;7.15;2.40;;;;;;;;;;5037938;28;20048;-66
2022/04/08 17:09:30;;;;;;;8.68;2.30;;;;;;;;;;5034309;28;20124;-65
2022/04/08 17:11:56;;;;;;;8.18;2.70;;;;;;;;;;5034771;28;20048;-66
2022/04/08 17:14:22;;;;;;;6.47;2.35;;;;;;;;;;5042638;28;20041;-65
2022/04/08 17:16:48;;;;;;;10.50;2.65;;;;;;;;;;5046354;28;20038;-65
2022/04/08 17:19:14;;;;;;;11.48;3.05;;;;;;;;;;5052658;28;20043;-65
2022/04/08 17:21:41;;;;;;;8.15;2.85;;;;;;;;;;5053313;28;20041;-66
2022/04/08 17:24:10;;;;;;;9.45;2.80;;;;;;;;;;5052122;28;20044;-67
2022/04/08 17:26:36;;;;;;;9.88;2.25;;;;;;;;;;5044904;28;20120;-67
2022/04/08 17:29:02;;;;;;;7.82;2.08;;;;;;;;;;5052685;28;20487;-67
2022/04/08 17:31:28;;;;;;;6.72;2.55;;;;;;;;;;5050113;28;20044;-66
2022/04/08 17:33:54;;;;;;;7.53;2.50;;;;;;;;;;5037200;28;20126;-67
2022/04/08 17:36:20;;;;;;;7.30;2.42;;;;;;;;;;5041639;28;20508;-67
2022/04/08 17:38:46;;;;;;;6.60;2.00;;;;;;;;;;5045019;28;20097;-66
2022/04/08 17:41:12;;;;;;;7.93;2.40;;;;;;;;;;5042973;28;20484;-66
2022/04/08 17:43:38;;;;;;;8.57;2.35;;;;;;;;;;5044290;28;20042;-67
2022/04/08 17:46:07;;;;;;;7.65;2.50;;;;;;;;;;5047896;28;20041;-67
2022/04/08 17:48:33;;;;;;;6.53;2.35;;;;;;;;;;5039373;28;20415;-67
2022/04/08 17:50:59;;;;;;;7.47;2.40;;;;;;;;;;5044583;28;20563;-66
2022/04/08 17:53:29;;;;;;;5.90;2.08;;;;;;;;;;5042574;28;20487;-66
2022/04/08 17:55:56;;;;;;;5.53;1.88;;;;;;;;;;5041008;28;20044;-67
2022/04/08 17:58:22;;;;;;;6.13;2.38;;;;;;;;;;5043153;28;20068;-67
2022/04/08 18:00:50;;;;;;;4.65;2.00;;;;;;;;;;5040607;28;20075;-67
2022/04/08 18:03:16;;;;;;;6.47;2.10;;;;;;;;;;5042242;28;20127;-66
2022/04/08 18:05:42;;;;;;;7.00;2.40;;;;;;;;;;5044821;28;20059;-67
2022/04/08 18:08:08;;;;;;;5.55;2.10;;;;;;;;;;5042520;28;21455;-67
2022/04/08 18:10:35;;;;;;;5.43;1.95;;;;;;;;;;5043215;28;20037;-66
2022/04/08 18:13:01;;;;;;;5.82;2.05;;;;;;;;;;5045735;28;20068;-67
2022/04/08 18:15:27;;;;;;;4.82;1.80;;;;;;;;;;5036885;28;20038;-67
2022/04/08 18:17:53;;;;;;;4.80;1.83;;;;;;;;;;5048979;28;20040;-67
2022/04/08 18:20:19;;;;;;;5.03;2.17;;;;;;;;;;5042834;28;20485;-67
2022/04/08 18:22:46;;;;;;;7.50;2.30;;;;;;;;;;5052243;28;20037;-67
2022/04/08 18:25:12;;;;;;;3.80;2.25;;;;;;;;;;5039554;28;20041;-67
2022/04/08 18:27:38;;;;;;;5.07;2.03;;;;;;;;;;5053338;28;20052;-67
2022/04/08 18:30:04;;;;;;;5.57;2.30;;;;;;;;;;5042224;28;20041;-67
2022/04/08 18:32:31;;;;;;;5.13;2.10;;;;;;;;;;5052437;28;20048;-67
2022/04/08 18:34:58;;;;;;;4.45;1.63;;;;;;;;;;5053129;28;20056;-67
2022/04/08 18:37:24;;;;;;;4.00;1.90;;;;;;;;;;5034306;28;20045;-67
2022/04/08 18:39:50;;;;;;;3.83;1.95;;;;;;;;;;5052350;28;20068;-67
2022/04/08 18:42:16;;;;;;;3.63;1.60;;;;;;;;;;5052614;28;20041;-67
2022/04/08 18:44:43;;;;;;;3.42;1.80;;;;;;;;;;5049176;28;20393;-67
2022/04/08 18:47:10;;;;;;;4.63;2.00;;;;;;;;;;5050759;28;20447;-67
2022/04/08 18:49:36;;;;;;;4.10;1.90;;;;;;;;;;5052477;28;20048;-67
2022/04/08 18:52:04;;;;;;;6.32;1.98;;;;;;;;;;5052480;28;20103;-67
2022/04/08 18:54:30;;;;;;;4.82;1.63;;;;;;;;;;5052489;28;20041;-67
2022/04/08 18:56:56;;;;;;;4.30;1.67;;;;;;;;;;5052384;28;20087;-67
2022/04/08 18:59:22;;;;;;;3.70;1.73;;;;;;;;;;5053143;28;20037;-67
2022/04/08 19:01:48;;;;;;;4.30;1.80;;;;;;;;;;5051459;28;20083;-66
2022/04/08 19:04:14;;;;;;;3.90;1.50;;;;;;;;;;5052501;28;20519;-67
2022/04/08 19:06:40;;;;;;;3.03;1.55;;;;;;;;;;5052264;28;20577;-67
2022/04/08 19:09:06;;;;;;;4.10;1.70;;;;;;;;;;5052345;28;20064;-67
2022/04/08 19:11:34;;;;;;;3.80;1.75;;;;;;;;;;5052326;28;20124;-67
2022/04/08 19:14:00;;;;;;;3.00;1.90;;;;;;;;;;5050375;28;20129;-67
2022/04/08 19:16:26;;;;;;;3.53;1.80;;;;;;;;;;5059570;28;20068;-67
2022/04/08 19:18:52;;;;;;;4.05;1.80;;;;;;;;;;5051014;28;20036;-67
2022/04/08 19:21:18;;;;;;;4.93;1.83;;;;;;;;;;5051968;28;20052;-67
2022/04/08 19:23:44;;;;;;;4.32;1.80;;;;;;;;;;5052110;28;20033;-67
2022/04/08 19:26:10;;;;;;;4.00;1.70;;;;;;;;;;5042156;28;20045;-67
2022/04/08 19:28:36;;;;;;;3.85;1.60;;;;;;;;;;5060761;28;20428;-67
2022/04/08 19:31:02;;;;;;;3.78;1.60;;;;;;;;;;5061096;28;20130;-66
2022/04/08 19:33:28;;;;;;;3.80;1.70;;;;;;;;;;5067461;28;20147;-67
2022/04/08 19:35:54;;;;;;;7.93;2.00;;;;;;;;;;5055903;28;20048;-67
2022/04/08 19:38:20;;;;;;;5.70;2.30;;;;;;;;;;5055184;28;20068;-67
2022/04/08 19:40:46;;;;;;;8.77;2.20;;;;;;;;;;5056016;28;20075;-66
2022/04/08 19:43:12;;;;;;;5.85;2.35;;;;;;;;;;5056187;28;20123;-66
2022/04/08 19:45:39;;;;;;;6.78;2.03;;;;;;;;;;5054583;28;20087;-66
2022/04/08 19:48:05;;;;;;;4.35;1.67;;;;;;;;;;5055543;28;20116;-66
2022/04/08 19:50:31;;;;;;;6.38;1.80;;;;;;;;;;5055579;28;20091;-66
2022/04/08 19:52:59;;;;;;;5.85;1.70;;;;;;;;;;5054774;28;20045;-67
2022/04/08 19:55:25;;;;;;;5.00;1.88;;;;;;;;;;5055285;28;20561;-67
2022/04/08 19:57:51;;;;;;;4.32;1.60;;;;;;;;;;5055357;28;20064;-66
2022/04/08 20:00:17;;;;;;;7.45;2.35;;;;;;;;;;5055682;28;20408;-67
2022/04/08 20:02:44;;;;;;;4.63;1.80;;;;;;;;;;5055477;28;20492;-67
2022/04/08 20:05:10;;;;;;;9.52;2.20;;;;;;;;;;5055526;28;20120;-67
2022/04/08 20:07:36;;;;;;;6.00;1.70;;;;;;;;;;5055350;28;20048;-67
2022/04/08 20:10:03;;;;;;;4.53;1.70;;;;;;;;;;5055221;28;20041;-67
2022/04/08 20:12:29;;;;;;;5.85;2.00;;;;;;;;;;5054052;28;20329;-67
2022/04/08 20:14:55;;;;;;;8.40;2.10;;;;;;;;;;5055220;28;20550;-67
2022/04/08 20:17:21;;;;;;;4.30;1.88;;;;;;;;;;5055086;28;20041;-67
2022/04/08 20:19:47;;;;;;;3.25;1.75;;;;;;;;;;5054050;28;20040;-66
2022/04/08 20:22:13;;;;;;;3.22;1.77;;;;;;;;;;5055181;28;20055;-67
2022/04/08 20:24:40;;;;;;;5.60;1.80;;;;;;;;;;5054736;28;20400;-67
2022/04/08 20:27:06;;;;;;;5.00;1.95;;;;;;;;;;5055226;28;20041;-67
2022/04/08 20:29:33;;;;;;;4.07;1.80;;;;;;;;;;5055449;28;20048;-66
2022/04/08 20:31:59;;;;;;;3.95;1.85;;;;;;;;;;5054165;28;20057;-68
2022/04/08 20:34:27;;;;;;;4.32;1.67;;;;;;;;;;5054515;28;20037;-67
2022/04/08 20:36:53;;;;;;;6.68;1.92;;;;;;;;;;5054703;28;20098;-67
2022/04/08 20:39:19;;;;;;;5.00;1.67;;;;;;;;;;5054797;28;20048;-68
2022/04/08 20:41:45;;;;;;;4.13;1.90;;;;;;;;;;5054913;28;20040;-67
2022/04/08 20:44:11;;;;;;;3.80;1.70;;;;;;;;;;5054769;28;20112;-67
2022/04/08 20:46:37;;;;;;;3.70;1.70;;;;;;;;;;5054766;28;20045;-68
2022/04/08 20:49:04;;;;;;;3.92;1.80;;;;;;;;;;5054539;28;20041;-68
2022/04/08 20:51:30;;;;;;;2.40;1.52;;;;;;;;;;5053725;28;20041;-67
2022/04/08 20:53:56;;;;;;;3.90;1.77;;;;;;;;;;5054310;28;20033;-67
2022/04/08 20:56:22;;;;;;;4.32;1.92;;;;;;;;;;5054488;28;20037;-67
2022/04/08 20:58:50;;;;;;;3.60;1.73;;;;;;;;;;5054589;28;20037;-67
2022/04/08 21:01:16;;;;;;;4.18;1.42;;;;;;;;;;5054697;28;20132;-67
2022/04/08 21:03:42;;;;;;;3.90;1.70;;;;;;;;;;5054268;28;20049;-67
2022/04/08 21:06:09;;;;;;;3.60;1.60;;;;;;;;;;5054802;28;20629;-68
2022/04/08 21:08:35;;;;;;;3.83;1.58;;;;;;;;;;5053968;28;20056;-67
2022/04/08 21:11:01;;;;;;;2.63;1.75;;;;;;;;;;5054517;28;20077;-67
2022/04/08 21:13:28;;;;;;;5.22;1.77;;;;;;;;;;5054355;28;20378;-67
2022/04/08 21:15:54;;;;;;;3.10;1.50;;;;;;;;;;5053019;28;20568;-67
2022/04/08 21:18:20;;;;;;;2.65;1.50;;;;;;;;;;5054173;28;20045;-67
2022/04/08 21:20:46;;;;;;;1.83;1.38;;;;;;;;;;5052818;28;20056;-67
2022/04/08 21:23:13;;;;;;;2.20;1.60;;;;;;;;;;5053587;28;20387;-67
2022/04/08 21:25:39;;;;;;;4.63;1.70;;;;;;;;;;5054160;28;20108;-68
2022/04/08 21:28:05;;;;;;;2.50;1.50;;;;;;;;;;5053808;28;20055;-67
2022/04/08 21:30:31;;;;;;;3.58;1.60;;;;;;;;;;5054098;28;20052;-67
2022/04/08 21:32:58;;;;;;;2.95;1.50;;;;;;;;;;5053786;28;20095;-68
2022/04/08 21:35:24;;;;;;;2.72;1.80;;;;;;;;;;5053876;28;20056;-67
2022/04/08 21:37:50;;;;;;;4.03;1.75;;;;;;;;;;5053555;28;20515;-67
2022/04/08 21:40:16;;;;;;;2.47;1.60;;;;;;;;;;5053528;28;20484;-67
2022/04/08 21:42:43;;;;;;;2.55;1.48;;;;;;;;;;5053080;28;20469;-66
2022/04/08 21:45:09;;;;;;;3.22;1.60;;;;;;;;;;5053017;28;20055;-67
2022/04/08 21:47:35;;;;;;;5.72;1.80;;;;;;;;;;5052544;28;20056;-66
2022/04/08 21:50:01;;;;;;;3.33;1.60;;;;;;;;;;5053666;28;20056;-67
2022/04/08 21:52:27;;;;;;;3.90;1.63;;;;;;;;;;5053467;28;20037;-67
2022/04/08 21:54:53;;;;;;;4.28;1.90;;;;;;;;;;5053195;28;20044;-68
2022/04/08 21:57:19;;;;;;;3.20;1.70;;;;;;;;;;5053242;28;20041;-67
2022/04/08 21:59:45;;;;;;;4.43;1.77;;;;;;;;;;5053076;28;20037;-67
2022/04/08 22:02:12;;;;;;;3.30;1.60;;;;;;;;;;5053446;28;20066;-67
2022/04/08 22:04:38;;;;;;;2.53;1.60;;;;;;;;;;5053469;28;20049;-67
2022/04/08 22:07:04;;;;;;;2.35;1.55;;;;;;;;;;5053021;28;20048;-68
2022/04/08 22:09:31;;;;;;;2.83;1.80;;;;;;;;;;5053196;28;20073;-68
2022/04/08 22:11:57;;;;;;;3.47;1.58;;;;;;;;;;5053219;28;20072;-67
2022/04/08 22:14:23;;;;;;;4.57;1.65;;;;;;;;;;5052987;28;20099;-68
2022/04/08 22:16:49;;;;;;;2.95;1.50;;;;;;;;;;5053128;28;20044;-67
2022/04/08 22:19:14;;;;;;;3.88;1.70;;;;;;;;;;5053018;28;20041;-67
2022/04/08 22:21:40;;;;;;;3.10;1.70;;;;;;;;;;5053219;28;20102;-67
2022/04/08 22:24:07;;;;;;;6.18;2.22;;;;;;;;;;5052487;28;20072;-68
2022/04/08 22:26:33;;;;;;;4.97;2.10;;;;;;;;;;5053013;28;20045;-67
2022/04/08 22:28:59;;;;;;;4.88;2.45;;;;;;;;;;5051639;28;20067;-68
2022/04/08 22:31:25;;;;;;;4.78;1.90;;;;;;;;;;5053099;28;20495;-67
2022/04/08 22:33:51;;;;;;;3.83;1.83;;;;;;;;;;5053133;28;20049;-67
2022/04/08 22:36:17;;;;;;;7.75;2.13;;;;;;;;;;5052675;28;20136;-68
2022/04/08 22:38:43;;;;;;;4.60;2.13;;;;;;;;;;5052683;28;20045;-67
2022/04/08 22:41:09;;;;;;;5.05;2.20;;;;;;;;;;5052527;28;20037;-67
2022/04/08 22:43:35;;;;;;;4.55;2.20;;;;;;;;;;5052138;28;20045;-68
2022/04/08 22:46:01;;;;;;;4.97;2.35;;;;;;;;;;5052844;28;20045;-67
2022/04/08 22:48:27;;;;;;;6.57;2.50;;;;;;;;;;5052989;28;20056;-67
2022/04/08 22:50:53;;;;;;;5.25;2.63;;;;;;;;;;5053042;28;20045;-67
2022/04/08 22:53:20;;;;;;;4.97;2.10;;;;;;;;;;5052349;28;20041;-68
2022/04/08 22:55:46;;;;;;;6.57;2.50;;;;;;;;;;5052683;28;20053;-67
2022/04/08 23:00:57;;;;;;;6.35;2.40;;;;;;;;;;5056980;28;20049;-67
2022/04/08 23:03:23;;;;;;;6.15;2.33;;;;;;;;;;5056790;28;20044;-67
2022/04/08 23:05:50;;;;;;;4.68;2.03;;;;;;;;;;5056682;28;20493;-67
2022/04/08 23:08:16;;;;;;;4.95;2.20;;;;;;;;;;5056621;28;20085;-67
2022/04/08 23:10:42;;;;;;;6.93;2.85;;;;;;;;;;5056298;28;20060;-68
2022/04/08 23:13:08;;;;;;;4.75;2.28;;;;;;;;;;5056498;28;20415;-67
2022/04/08 23:15:34;;;;;;;6.65;2.30;;;;;;;;;;5056361;28;20045;-67
2022/04/08 23:18:00;;;;;;;4.82;2.47;;;;;;;;;;5056205;28;20045;-67
2022/04/08 23:20:26;;;;;;;4.22;2.13;;;;;;;;;;5056006;28;20053;-67
2022/04/08 23:22:52;;;;;;;6.32;2.47;;;;;;;;;;5056145;28;20052;-67
2022/04/08 23:25:18;;;;;;;4.93;2.10;;;;;;;;;;5056336;28;20401;-67
2022/04/08 23:27:44;;;;;;;4.72;2.20;;;;;;;;;;5056121;28;20076;-67
2022/04/08 23:30:10;;;;;;;3.65;2.10;;;;;;;;;;5056356;28;20049;-67
2022/04/08 23:32:36;;;;;;;4.72;2.00;;;;;;;;;;5056234;28;20109;-67
2022/04/08 23:35:02;;;;;;;4.57;1.98;;;;;;;;;;5055974;28;20083;-67
2022/04/08 23:37:28;;;;;;;4.00;2.03;;;;;;;;;;5055913;28;20144;-67
2022/04/08 23:39:54;;;;;;;4.90;1.90;;;;;;;;;;5056019;28;20460;-67
2022/04/08 23:42:20;;;;;;;3.72;1.90;;;;;;;;;;5054670;28;20093;-67
2022/04/08 23:44:46;;;;;;;4.55;2.53;;;;;;;;;;5055980;28;20033;-67
2022/04/08 23:47:12;;;;;;;4.55;2.30;;;;;;;;;;5056065;28;20056;-67
2022/04/08 23:49:38;;;;;;;5.70;2.38;;;;;;;;;;5055472;28;20091;-67
2022/04/08 23:52:05;;;;;;;3.10;1.83;;;;;;;;;;5055728;28;20118;-66
2022/04/08 23:54:31;;;;;;;7.28;2.38;;;;;;;;;;5055439;28;20045;-66
2022/04/08 23:56:57;;;;;;;4.82;2.00;;;;;;;;;;5055621;28;20136;-65
2022/04/08 23:59:23;;;;;;;4.97;2.00;;;;;;;;;;5055732;28;20459;-65
